Time;durP1;ratioP1;P1;durP2;ratioP2;P2;SDS_P1;SDS_P2;PMS_P1;PMS_P2;Temp;Humidity;BMP_temperature;BMP_pressure;BME280_temperature;BME280_humidity;BME280_pressure;Samples;Min_cycle;Max_cycle;Signal;HPM_P1;HPM_P2
2023/04/21 00:00:52;;;;;;;20.80;9.80;;;;;;;6.28;82.94;100921.59;105547;1255;74270;-59
2023/04/21 00:03:40;;;;;;;15.70;9.40;;;;;;;6.22;83.10;100916.63;105605;1255;82567;-61
2023/04/21 00:06:21;;;;;;;20.00;9.40;;;;;;;6.22;83.51;100913.49;105615;1251;73877;-62
2023/04/21 00:09:28;;;;;;;21.30;8.70;;;;;;;6.20;83.35;100912.83;105599;1251;69205;-61
2023/04/21 00:12:20;;;;;;;16.80;9.10;;;;;;;6.13;83.09;100908.73;105605;1251;69172;-60
2023/04/21 00:15:08;;;;;;;15.00;8.80;;;;;;;6.11;83.35;100907.55;105577;1251;74057;-61
2023/04/21 00:18:26;;;;;;;16.80;9.10;;;;;;;6.09;83.42;100906.70;105615;1251;83413;-62
2023/04/21 00:21:04;;;;;;;;;;;;;;;6.02;83.35;100905.89;105769;1256;73724;-61
2023/04/21 00:23:58;;;;;;;16.80;8.20;;;;;;;5.96;83.29;100901.29;105645;1251;69167;-59
2023/04/21 00:27:16;;;;;;;19.30;9.10;;;;;;;5.90;83.52;100903.90;105652;1251;69214;-59
2023/04/21 00:30:06;;;;;;;14.70;8.90;;;;;;;5.87;83.58;100901.68;105653;1254;72276;-62
2023/04/21 00:33:00;;;;;;;;;;;;;;;;;;;;;
2023/04/21 00:35:49;;;;;;;18.80;10.20;;;;;;;5.78;83.63;100900.38;105734;1250;72807;-59
2023/04/21 00:38:57;;;;;;;16.80;10.40;;;;;;;5.74;83.74;100902.67;105525;1251;69093;-59
2023/04/21 00:42:01;;;;;;;21.10;10.30;;;;;;;5.69;83.80;100903.41;105657;1251;69017;-61
2023/04/21 00:44:52;;;;;;;16.30;10.10;;;;;;;5.66;84.23;100903.96;105484;1251;74112;-60
2023/04/21 00:47:36;;;;;;;20.90;11.50;;;;;;;5.61;83.90;100901.75;105523;1257;83501;-59
2023/04/21 00:50:51;;;;;;;17.50;10.50;;;;;;;5.56;84.08;100900.57;105545;1251;72819;-60
2023/04/21 00:53:48;;;;;;;;;;;;;;;;;;;;;
2023/04/21 00:56:40;;;;;;;20.50;10.60;;;;;;;5.53;84.72;100900.08;105890;1257;69223;-61
2023/04/21 00:59:30;;;;;;;16.60;9.90;;;;;;;5.51;84.66;100900.27;105529;1256;72009;-60
2023/04/21 01:02:44;;;;;;;;;;;;;;;;;;;;;
2023/04/21 01:08:49;;;;;;;16.50;9.80;;;;;;;5.37;84.48;100897.61;105468;1257;69111;-59
2023/04/21 01:11:55;;;;;;;16.00;10.20;;;;;;;5.32;84.62;100898.16;105542;1255;69147;-59
2023/04/21 01:14:50;;;;;;;18.30;9.40;;;;;;;5.29;84.78;100901.48;105531;1257;72799;-61
2023/04/21 01:17:45;;;;;;;19.00;10.90;;;;;;;5.26;84.83;100897.17;105561;1256;83054;-60
2023/04/21 01:20:56;;;;;;;19.90;10.30;;;;;;;5.24;85.09;100895.64;105553;1251;72844;-60
2023/04/21 01:23:58;;;;;;;19.10;10.30;;;;;;;5.22;85.03;100897.72;105588;1252;69200;-60
2023/04/21 01:27:24;;;;;;;15.00;10.00;;;;;;;5.20;84.86;100895.99;105427;1251;69142;-61
2023/04/21 01:30:21;;;;;;;16.50;8.90;;;;;;;5.18;85.07;100896.71;105566;1256;74179;-61
2023/04/21 01:33:24;;;;;;;;;;;;;;;;;;;;;
2023/04/21 01:36:31;;;;;;;17.60;10.40;;;;;;;5.09;84.96;100897.11;105534;1252;73819;-61
2023/04/21 01:39:27;;;;;;;16.80;9.70;;;;;;;5.09;85.36;100899.71;105506;1251;69237;-64
2023/04/21 01:42:39;;;;;;;19.60;11.00;;;;;;;5.07;85.30;100899.73;105551;1256;69188;-61
2023/04/21 01:45:48;;;;;;;19.10;11.20;;;;;;;5.06;85.35;100897.46;105557;1251;73251;-60
2023/04/21 01:49:01;;;;;;;21.50;11.30;;;;;;;5.05;85.36;100894.71;105478;1257;83752;-59
2023/04/21 01:51:52;;;;;;;;;;;;;;;5.04;85.37;100897.31;105512;1257;73853;-61
2023/04/21 01:55:12;;;;;;;20.00;10.70;;;;;;;5.00;85.37;100897.70;105556;1251;69069;-59
2023/04/21 01:58:24;;;;;;;20.80;11.10;;;;;;;4.98;85.72;100898.05;105512;1256;69183;-60
2023/04/21 02:01:37;;;;;;;;;;;;;;;;;;;;;
2023/04/21 02:04:55;;;;;;;22.40;11.20;;;;;;;4.91;85.58;100893.41;105559;1251;82509;-64
2023/04/21 02:08:10;;;;;;;17.80;10.40;;;;;;;4.88;85.41;100896.89;105499;1253;72855;-59
2023/04/21 02:11:15;;;;;;;19.30;11.60;;;;;;;4.85;85.36;100898.13;105557;1251;69164;-61
2023/04/21 02:14:16;;;;;;;16.20;10.50;;;;;;;4.82;85.42;100898.14;105559;1255;69205;-61
2023/04/21 02:17:35;;;;;;;18.20;11.30;;;;;;;4.79;85.33;100896.42;105608;1251;74041;-61
2023/04/21 02:20:45;;;;;;;19.20;10.90;;;;;;;4.76;85.62;100892.48;105647;1256;83422;-59
2023/04/21 02:24:14;;;;;;;17.40;10.80;;;;;;;4.72;85.57;100889.88;105365;1257;74130;-60
2023/04/21 02:27:28;;;;;;;20.30;11.10;;;;;;;4.67;85.32;100892.16;105577;1255;69185;-60
2023/04/21 02:30:26;;;;;;;18.20;10.80;;;;;;;4.63;85.64;100894.95;105588;1257;69188;-61
2023/04/21 02:33:56;;;;;;;17.20;10.60;;;;;;;4.60;85.68;100894.09;105573;1256;74325;-60
2023/04/21 02:37:30;;;;;;;16.00;11.00;;;;;;;4.58;85.74;100898.61;105551;1256;83437;-61
2023/04/21 02:40:18;;;;;;;18.20;11.60;;;;;;;4.57;85.83;100898.97;105801;1251;73775;-61
2023/04/21 02:43:36;;;;;;;20.50;12.00;;;;;;;4.55;85.88;100899.65;105567;1252;69117;-61
2023/04/21 02:46:56;;;;;;;17.20;11.30;;;;;;;4.49;85.54;100900.55;105558;1251;69122;-60
2023/04/21 02:50:16;;;;;;;;;;;;;;;;;;;;;
2023/04/21 02:53:47;;;;;;;17.90;11.20;;;;;;;4.40;85.74;100908.20;105578;1251;84009;-63
2023/04/21 02:56:48;;;;;;;20.90;11.50;;;;;;;4.37;85.97;100901.98;105359;1257;73816;-61
2023/04/21 03:00:22;;;;;;;19.40;12.70;;;;;;;4.34;86.09;100901.48;105573;1257;69121;-60
2023/04/21 03:03:45;;;;;;;;;;;;;;;;;;;;;
2023/04/21 03:07:19;;;;;;;21.20;12.20;;;;;;;4.31;86.36;100900.27;105370;1251;73910;-60
2023/04/21 03:10:45;;;;;;;;;;;;;;;;;;;;;
2023/04/21 03:14:02;;;;;;;18.10;12.50;;;;;;;4.23;85.97;100903.75;105313;1256;73900;-63
2023/04/21 03:17:44;;;;;;;;;;;;;;;;;;;;;
2023/04/21 03:21:13;;;;;;;20.80;13.40;;;;;;;4.23;87.00;100901.34;105470;1257;69256;-63
2023/04/21 03:24:53;;;;;;;17.10;11.00;;;;;;;4.31;87.15;100900.78;105492;1254;73817;-62
2023/04/21 03:28:25;;;;;;;18.20;12.10;;;;;;;4.29;86.53;100900.27;105385;1257;83589;-63
2023/04/21 03:31:53;;;;;;;21.60;13.10;;;;;;;4.23;86.43;100898.91;105449;1252;73772;-61
2023/04/21 03:35:33;;;;;;;;;;;;;;;;;;;;;
2023/04/21 03:39:23;;;;;;;17.50;11.60;;;;;;;4.21;86.67;100898.05;105575;1252;69471;-62
2023/04/21 03:42:55;;;;;;;;;;;;;;;;;;;;;
2023/04/21 03:46:21;;;;;;;16.30;11.00;;;;;;;4.19;86.43;100903.77;105577;1255;83486;-61
2023/04/21 03:49:48;;;;;;;;;;;;;;;;;;;;;
2023/04/21 03:53:38;;;;;;;21.80;13.50;;;;;;;4.10;86.76;100906.73;105577;1256;69199;-61
2023/04/21 03:57:07;;;;;;;23.60;14.40;;;;;;;4.09;86.80;100909.16;105416;1257;69204;-60
2023/04/21 04:00:19;;;;;;;20.20;14.10;;;;;;;4.06;86.83;100910.36;105637;1251;74084;-60
2023/04/21 04:03:50;;;;;;;17.40;13.20;;;;;;;4.06;86.99;100913.65;105579;1256;81647;-59
2023/04/21 04:10:54;;;;;;;23.60;13.70;;;;;;;4.13;87.13;100917.09;105394;1252;69151;-64
2023/04/21 04:14:12;;;;;;;20.60;13.70;;;;;;;4.15;87.71;100919.34;105535;1251;69283;-60
2023/04/21 04:17:19;;;;;;;23.20;15.20;;;;;;;4.19;87.42;100923.14;105638;1251;74150;-61
2023/04/21 04:20:30;;;;;;;;;;;;;;;;;;;;;
2023/04/21 04:24:14;;;;;;;;;;;;;;;;;;;;;
2023/04/21 04:27:01;;;;;;;19.00;12.80;;;;;;;4.31;87.82;100932.10;105578;1251;69162;-60
2023/04/21 04:29:56;;;;;;;20.70;13.60;;;;;;;4.36;87.85;100935.55;105631;1257;69182;-60
2023/04/21 04:32:28;;;;;;;21.20;12.90;;;;;;;4.38;87.74;100936.58;105876;1252;72842;-59
2023/04/21 04:35:11;;;;;;;18.00;12.30;;;;;;;4.41;87.85;100936.21;105611;1251;83631;-60
2023/04/21 04:37:48;;;;;;;16.00;12.20;;;;;;;4.46;87.79;100938.11;105685;1252;74694;-59
2023/04/21 04:40:33;;;;;;;21.80;13.70;;;;;;;4.51;88.02;100936.36;105734;1251;69192;-59
2023/04/21 04:43:14;;;;;;;23.10;12.80;;;;;;;4.58;87.97;100934.79;105704;1254;69195;-59
2023/04/21 04:45:44;;;;;;;18.60;12.10;;;;;;;4.61;87.92;100933.91;105730;1251;74178;-59
2023/04/21 04:48:15;;;;;;;20.20;12.90;;;;;;;4.62;87.89;100936.15;105797;1257;83537;-59
2023/04/21 04:50:52;;;;;;;20.60;13.70;;;;;;;4.65;88.18;100937.53;105827;1251;73615;-58
2023/04/21 04:53:31;;;;;;;22.40;14.10;;;;;;;4.74;88.54;100939.38;105609;1256;69195;-59
2023/04/21 04:56:08;;;;;;;24.10;14.40;;;;;;;4.85;88.68;100941.05;105708;1257;69175;-61
2023/04/21 04:58:45;;;;;;;17.10;12.90;;;;;;;4.99;89.04;100940.30;105877;1253;74223;-58
2023/04/21 05:01:28;;;;;;;18.60;12.90;;;;;;;5.08;89.19;100937.31;105674;1265;83306;-58
2023/04/21 05:04:26;;;;;;;24.60;15.70;;;;;;;5.19;89.27;100939.33;105651;1251;73760;-59
2023/04/21 05:07:11;;;;;;;22.50;14.80;;;;;;;5.35;89.57;100935.41;105667;1257;69072;-58
2023/04/21 05:10:04;;;;;;;21.50;14.00;;;;;;;5.51;89.98;100934.77;105893;1252;69189;-58
2023/04/21 05:12:45;;;;;;;18.20;13.80;;;;;;;5.64;89.43;100932.94;105758;1254;73034;-58
2023/04/21 05:15:21;;;;;;;23.00;15.10;;;;;;;5.73;89.22;100934.59;105822;1254;83416;-60
2023/04/21 05:18:00;;;;;;;23.80;15.20;;;;;;;5.83;89.15;100936.58;105921;1251;73851;-58
2023/04/21 05:20:32;;;;;;;24.30;16.10;;;;;;;5.95;89.15;100936.31;105568;1250;69143;-60
2023/04/21 05:23:23;;;;;;;27.80;15.40;;;;;;;6.05;89.26;100938.67;105753;1257;69192;-60
2023/04/21 05:26:07;;;;;;;20.70;14.50;;;;;;;6.17;89.21;100938.02;105636;1257;73918;-61
2023/04/21 05:28:49;;;;;;;22.90;16.00;;;;;;;6.29;89.34;100943.63;105775;1254;83485;-60
2023/04/21 05:31:21;;;;;;;22.60;15.40;;;;;;;6.39;89.26;100942.30;105759;1257;72983;-60
2023/04/21 05:34:05;;;;;;;21.10;15.80;;;;;;;6.49;89.21;100940.28;105885;1254;69162;-59
2023/04/21 05:36:42;;;;;;;23.50;16.80;;;;;;;6.59;89.10;100944.50;105642;1254;69021;-59
2023/04/21 05:39:16;;;;;;;23.30;16.60;;;;;;;6.68;88.87;100945.59;105790;1256;73990;-59
2023/04/21 05:41:53;;;;;;;23.90;17.10;;;;;;;6.77;88.53;100946.54;105712;1262;83280;-59
2023/04/21 05:44:27;;;;;;;26.60;16.90;;;;;;;6.85;88.52;100947.30;105737;1252;72885;-59
2023/04/21 05:47:06;;;;;;;25.00;16.70;;;;;;;6.94;88.43;100952.73;105679;1252;69057;-59
2023/04/21 05:49:43;;;;;;;27.20;16.50;;;;;;;7.04;88.59;100959.73;105777;1254;69227;-58
2023/04/21 05:52:14;;;;;;;24.70;17.10;;;;;;;7.15;88.57;100955.23;105742;1254;74256;-56
2023/04/21 05:54:50;;;;;;;24.20;16.20;;;;;;;7.27;88.60;100947.95;105672;1251;84027;-59
2023/04/21 05:57:28;;;;;;;24.00;15.60;;;;;;;7.37;88.35;100944.84;105714;1252;73822;-57
2023/04/21 06:00:03;;;;;;;25.70;16.40;;;;;;;7.47;88.21;100942.60;105614;1255;69484;-58
2023/04/21 06:02:38;;;;;;;21.20;15.10;;;;;;;7.57;88.03;100939.14;105916;1257;69133;-56
2023/04/21 06:05:16;;;;;;;24.10;15.50;;;;;;;7.68;87.77;100939.47;105595;1256;75704;-58
2023/04/21 06:07:56;;;;;;;25.40;16.10;;;;;;;7.78;87.71;100942.45;105664;1251;83682;-56
2023/04/21 06:10:30;;;;;;;20.70;15.30;;;;;;;7.88;87.32;100942.98;105980;1252;73863;-58
2023/04/21 06:13:13;;;;;;;24.30;16.00;;;;;;;7.96;87.41;100942.14;105678;1257;69038;-58
2023/04/21 06:15:41;;;;;;;22.70;15.90;;;;;;;8.05;87.40;100939.38;105646;1257;69420;-58
2023/04/21 06:18:15;;;;;;;27.00;16.60;;;;;;;8.13;87.15;100939.05;105666;1256;73998;-58
2023/04/21 06:20:55;;;;;;;26.90;17.70;;;;;;;8.22;87.07;100946.35;105680;1254;83762;-58
2023/04/21 06:23:33;;;;;;;22.10;16.80;;;;;;;8.31;86.70;100943.06;105668;1252;73884;-60
2023/04/21 06:26:08;;;;;;;24.10;16.20;;;;;;;8.39;86.81;100941.01;105942;1260;69182;-57
2023/04/21 06:28:48;;;;;;;22.50;15.90;;;;;;;8.49;86.73;100940.48;105680;1256;69230;-59
2023/04/21 06:31:35;;;;;;;19.40;15.50;;;;;;;8.59;86.69;100939.58;105706;1256;74264;-62
2023/04/21 06:34:19;;;;;;;22.20;16.30;;;;;;;8.71;86.83;100937.27;105660;1254;83528;-58
2023/04/21 06:37:12;;;;;;;21.60;16.70;;;;;;;8.82;86.55;100938.76;105547;1251;73709;-60
2023/04/21 06:39:51;;;;;;;23.60;16.50;;;;;;;8.96;86.62;100934.27;105650;1254;69189;-59
2023/04/21 06:42:31;;;;;;;23.40;15.30;;;;;;;9.10;86.43;100934.15;105649;1262;69221;-59
2023/04/21 06:45:02;;;;;;;20.40;15.40;;;;;;;9.25;86.43;100926.82;109592;1251;74211;-60
2023/04/21 06:47:30;;;;;;;20.50;15.10;;;;;;;9.41;86.43;100928.71;109611;1250;83610;-60
2023/04/21 06:49:59;;;;;;;20.50;15.50;;;;;;;9.59;86.01;100926.02;109599;1251;72705;-60
2023/04/21 06:52:27;;;;;;;20.50;16.10;;;;;;;9.77;85.68;100927.48;109575;1250;66828;-60
2023/04/21 06:54:55;;;;;;;20.70;15.20;;;;;;;9.95;85.35;100926.84;109587;1251;66802;-60
2023/04/21 06:57:23;;;;;;;22.20;15.40;;;;;;;10.13;84.84;100922.72;109587;1251;73037;-60
2023/04/21 06:59:54;;;;;;;24.70;16.80;;;;;;;10.29;84.33;100922.12;105982;1253;81891;-59
2023/04/21 07:02:28;;;;;;;25.70;17.00;;;;;;;10.44;83.64;100923.10;105729;1253;72984;-62
2023/04/21 07:05:03;;;;;;;21.30;16.10;;;;;;;10.58;83.35;100921.30;105746;1254;69116;-60
2023/04/21 07:07:39;;;;;;;20.50;15.70;;;;;;;10.69;82.95;100918.55;105664;1253;69262;-60
2023/04/21 07:10:18;;;;;;;19.90;15.80;;;;;;;10.82;82.45;100917.14;105779;1253;74095;-59
2023/04/21 07:12:58;;;;;;;21.80;16.00;;;;;;;10.92;82.01;100919.11;105750;1254;83287;-63
2023/04/21 07:15:33;;;;;;;19.60;15.60;;;;;;;11.01;81.38;100918.66;105781;1250;72851;-60
2023/04/21 07:18:05;;;;;;;20.40;14.80;;;;;;;11.11;81.42;100916.77;105684;1258;69544;-62
2023/04/21 07:20:47;;;;;;;22.00;14.90;;;;;;;11.25;81.00;100918.97;105675;1254;69103;-60
2023/04/21 07:23:21;;;;;;;26.90;13.50;;;;;;;11.36;80.34;100916.85;105706;1251;74086;-62
2023/04/21 07:26:00;;;;;;;19.50;14.40;;;;;;;11.50;80.37;100920.79;105688;1254;83508;-62
2023/04/21 07:28:41;;;;;;;22.00;14.30;;;;;;;11.64;80.23;100916.48;105668;1251;72700;-59
2023/04/21 07:31:22;;;;;;;17.90;14.60;;;;;;;11.76;79.66;100914.15;105654;1254;69198;-63
2023/04/21 07:34:01;;;;;;;21.50;15.20;;;;;;;11.86;79.25;100910.85;105735;1254;69026;-59
2023/04/21 07:36:40;;;;;;;23.40;15.60;;;;;;;11.96;79.05;100910.34;105697;1253;73084;-58
2023/04/21 07:39:20;;;;;;;20.90;15.80;;;;;;;12.12;79.22;100909.44;105674;1254;83465;-62
2023/04/21 07:41:55;;;;;;;19.70;15.30;;;;;;;12.28;78.61;100911.34;105660;1253;73857;-59
2023/04/21 07:44:28;;;;;;;20.80;14.50;;;;;;;12.40;78.29;100907.22;105663;1250;69089;-62
2023/04/21 07:47:05;;;;;;;19.70;14.40;;;;;;;12.50;77.73;100911.23;105710;1253;69156;-64
2023/04/21 07:49:49;;;;;;;22.20;15.60;;;;;;;12.57;77.15;100913.94;105686;1254;73705;-61
2023/04/21 07:52:23;;;;;;;22.40;15.90;;;;;;;12.65;76.91;100914.16;105735;1253;82380;-59
2023/04/21 07:54:55;;;;;;;19.90;14.40;;;;;;;12.79;76.70;100916.30;105683;1254;72725;-59
2023/04/21 07:57:33;;;;;;;20.20;15.50;;;;;;;12.87;75.90;100912.27;105715;1254;69201;-61
2023/04/21 08:00:03;;;;;;;18.70;14.70;;;;;;;12.93;75.74;100910.99;105697;1253;69597;-62
2023/04/21 08:02:44;;;;;;;17.30;14.10;;;;;;;13.08;75.62;100907.80;105713;1251;74177;-60
2023/04/21 08:05:25;;;;;;;18.30;14.50;;;;;;;13.22;75.28;100907.98;105698;1253;83437;-60
2023/04/21 08:08:09;;;;;;;17.90;14.40;;;;;;;13.28;74.32;100907.54;105756;1251;73509;-60
2023/04/21 08:10:43;;;;;;;16.80;13.30;;;;;;;13.32;73.74;100906.35;105674;1254;69177;-59
2023/04/21 08:13:19;;;;;;;18.20;14.10;;;;;;;13.39;73.74;100901.67;105717;1262;69172;-60
2023/04/21 08:15:54;;;;;;;20.90;14.20;;;;;;;13.54;74.22;100905.63;105743;1254;73018;-60
2023/04/21 08:18:31;;;;;;;19.00;14.40;;;;;;;13.73;73.61;100905.89;105716;1253;83364;-60
2023/04/21 08:21:03;;;;;;;18.10;14.50;;;;;;;13.85;73.09;100905.38;105722;1253;74090;-60
2023/04/21 08:23:34;;;;;;;17.30;13.40;;;;;;;13.95;72.84;100904.09;105809;1254;69128;-61
2023/04/21 08:26:12;;;;;;;20.60;13.80;;;;;;;14.06;72.62;100899.23;105700;1251;69112;-61
2023/04/21 08:28:48;;;;;;;18.40;14.20;;;;;;;14.20;72.17;100903.35;105697;1253;73045;-61
2023/04/21 08:31:23;;;;;;;21.20;14.10;;;;;;;14.32;71.68;100900.70;105790;1254;82725;-59
2023/04/21 08:33:55;;;;;;;20.00;13.10;;;;;;;14.47;71.57;100897.59;105719;1253;73910;-59
2023/04/21 08:36:32;;;;;;;17.90;13.30;;;;;;;14.62;71.23;100898.51;105701;1250;69086;-60
2023/04/21 08:39:04;;;;;;;20.70;14.40;;;;;;;14.77;70.97;100895.16;105695;1251;69259;-60
2023/04/21 08:41:33;;;;;;;17.90;13.40;;;;;;;14.95;70.62;100890.63;105676;1253;72468;-60
2023/04/21 08:44:04;;;;;;;16.50;12.50;;;;;;;15.13;70.21;100889.41;105772;1252;82473;-60
2023/04/21 08:46:37;;;;;;;17.40;12.80;;;;;;;15.30;70.22;100884.55;105663;1251;72699;-62
2023/04/21 08:49:08;;;;;;;16.10;12.90;;;;;;;15.52;69.74;100887.02;105708;1253;69130;-61
2023/04/21 08:51:37;;;;;;;16.10;12.10;;;;;;;15.69;69.32;100885.25;105710;1254;69011;-63
2023/04/21 08:54:06;;;;;;;14.60;11.90;;;;;;;15.85;68.46;100880.40;105978;1251;74033;-60
2023/04/21 08:56:39;;;;;;;15.80;12.20;;;;;;;16.02;68.06;100880.95;105695;1251;82749;-64
2023/04/21 08:59:13;;;;;;;16.50;11.70;;;;;;;16.21;67.64;100881.90;105655;1251;72783;-59
2023/04/21 09:02:16;;;;;;;19.10;12.30;;;;;;;16.38;67.03;100884.37;105661;1257;69162;-59
2023/04/21 09:04:47;;;;;;;14.60;11.50;;;;;;;16.53;66.60;100881.05;105780;1254;69307;-62
2023/04/21 09:07:37;;;;;;;14.30;12.00;;;;;;;16.70;66.05;100883.45;105753;1251;74174;-61
2023/04/21 09:10:07;;;;;;;17.40;11.10;;;;;;;16.88;65.72;100880.05;105697;1253;83468;-60
2023/04/21 09:12:38;;;;;;;14.70;11.70;;;;;;;17.07;65.09;100875.61;105833;1251;73874;-60
2023/04/21 09:15:10;;;;;;;15.70;12.00;;;;;;;17.24;64.41;100878.39;105718;1253;69136;-60
2023/04/21 09:17:38;;;;;;;14.60;10.40;;;;;;;17.42;63.79;100877.00;105736;1251;69070;-59
2023/04/21 09:20:18;;;;;;;14.90;10.50;;;;;;;17.55;62.99;100870.23;105689;1251;74191;-62
2023/04/21 09:22:52;;;;;;;16.20;11.30;;;;;;;17.75;62.64;100868.89;105718;1254;83578;-62
2023/04/21 09:25:21;;;;;;;16.00;11.50;;;;;;;17.90;62.02;100863.94;105827;1251;72815;-60
2023/04/21 09:27:49;;;;;;;13.90;11.20;;;;;;;18.05;61.61;100867.27;105963;1250;69138;-64
2023/04/21 09:30:18;;;;;;;13.30;11.00;;;;;;;18.21;61.23;100863.66;105598;1251;69144;-62
2023/04/21 09:32:48;;;;;;;14.10;11.90;;;;;;;18.38;61.05;100861.20;105694;1251;74246;-63
2023/04/21 09:35:16;;;;;;;13.90;10.30;;;;;;;18.53;60.91;100858.27;105880;1254;83374;-63
2023/04/21 09:37:45;;;;;;;12.10;10.80;;;;;;;18.72;60.26;100856.02;105896;1254;73851;-63
2023/04/21 09:40:14;;;;;;;13.50;11.10;;;;;;;18.88;59.60;100847.94;105630;1253;69187;-61
2023/04/21 09:42:42;;;;;;;15.80;10.70;;;;;;;19.03;59.44;100848.02;105791;1251;69074;-62
2023/04/21 09:45:16;;;;;;;18.10;11.90;;;;;;;19.25;59.10;100848.70;105802;1251;73036;-64
2023/04/21 09:48:07;;;;;;;15.80;11.40;;;;;;;19.38;58.03;100848.23;105676;1254;83623;-61
2023/04/21 09:50:36;;;;;;;14.10;11.50;;;;;;;19.48;57.72;100846.45;105600;1257;73876;-59
2023/04/21 09:53:11;;;;;;;16.10;10.80;;;;;;;19.64;57.53;100839.92;105092;1257;69090;-60
2023/04/21 09:55:40;;;;;;;13.70;10.10;;;;;;;19.83;56.74;100840.58;105218;1256;69212;-61
2023/04/21 09:58:09;;;;;;;;;;;;;;;20.00;56.15;100839.21;105207;1261;73251;-61
2023/04/21 10:00:38;;;;;;;11.30;9.50;;;;;;;20.16;55.38;100838.68;105159;1257;83830;-62
2023/04/21 10:03:10;;;;;;;13.50;11.10;;;;;;;20.31;55.16;100836.68;105228;1258;73720;-61
2023/04/21 10:05:38;;;;;;;14.90;9.80;;;;;;;20.45;54.61;100828.63;105214;1257;69253;-61
2023/04/21 10:08:10;;;;;;;12.00;10.10;;;;;;;20.59;53.77;100830.48;105140;1257;69209;-64
2023/04/21 10:10:39;;;;;;;12.60;8.20;;;;;;;20.78;53.72;100824.86;105602;1251;74183;-61
2023/04/21 10:13:14;;;;;;;12.20;7.50;;;;;;;21.07;53.19;100827.85;105785;1251;83271;-59
2023/04/21 10:15:43;;;;;;;11.70;7.80;;;;;;;21.36;52.55;100822.84;105637;1256;73736;-61
2023/04/21 10:18:22;;;;;;;9.50;8.10;;;;;;;21.69;52.14;100823.92;105728;1254;69176;-60
2023/04/21 10:20:52;;;;;;;12.60;7.80;;;;;;;21.92;51.56;100826.95;105725;1251;69022;-61
2023/04/21 10:23:37;;;;;;;9.20;7.40;;;;;;;22.21;50.90;100820.91;105907;1251;74980;-63
2023/04/21 10:26:12;;;;;;;11.10;7.30;;;;;;;22.48;50.30;100816.66;105727;1254;83538;-59
2023/04/21 10:28:42;;;;;;;10.80;7.80;;;;;;;22.82;49.92;100811.95;105736;1251;73729;-61
2023/04/21 10:31:28;;;;;;;8.80;8.00;;;;;;;23.07;49.32;100809.42;105753;1251;69186;-61
2023/04/21 10:34:06;;;;;;;13.60;8.30;;;;;;;23.19;48.48;100804.52;105722;1250;69071;-60
2023/04/21 10:36:44;;;;;;;13.90;8.30;;;;;;;23.27;48.02;100801.66;105758;1251;74183;-59
2023/04/21 10:39:27;;;;;;;13.50;8.40;;;;;;;23.19;47.67;100799.45;105741;1251;83687;-60
2023/04/21 10:42:14;;;;;;;9.60;8.60;;;;;;;22.88;46.84;100798.56;105739;1251;73849;-64
2023/04/21 10:44:55;;;;;;;11.90;9.10;;;;;;;22.91;47.08;100791.06;105633;1251;69199;-61
2023/04/21 10:47:28;;;;;;;12.40;9.60;;;;;;;23.19;47.00;100788.41;105742;1253;69185;-61
2023/04/21 10:49:57;;;;;;;9.50;7.80;;;;;;;23.26;46.43;100787.32;105750;1254;74571;-63
2023/04/21 10:52:31;;;;;;;15.70;9.10;;;;;;;23.42;46.33;100784.98;105910;1251;83207;-61
2023/04/21 10:54:59;;;;;;;8.00;6.60;;;;;;;23.69;45.73;100781.50;105712;1251;72694;-60
2023/04/21 10:57:32;;;;;;;11.10;6.90;;;;;;;23.77;44.62;100781.88;105645;1251;69200;-60
2023/04/21 11:00:00;;;;;;;8.30;6.90;;;;;;;23.85;43.91;100784.29;105709;1251;69681;-59
2023/04/21 11:02:29;;;;;;;8.10;7.30;;;;;;;23.91;43.54;100779.41;105718;1251;74393;-60
2023/04/21 11:04:57;;;;;;;9.10;7.60;;;;;;;23.95;43.04;100778.58;105788;1250;82980;-62
2023/04/21 11:07:26;;;;;;;9.20;7.40;;;;;;;23.81;42.58;100776.00;105655;1251;72939;-60
2023/04/21 11:10:01;;;;;;;10.50;8.10;;;;;;;23.34;42.06;100772.88;105746;1250;69138;-62
2023/04/21 11:12:32;;;;;;;9.80;7.80;;;;;;;22.76;42.11;100768.47;105751;1250;69227;-60
2023/04/21 11:15:06;;;;;;;9.20;7.80;;;;;;;22.69;42.69;100767.41;105621;1254;73072;-64
2023/04/21 11:17:37;;;;;;;7.90;7.10;;;;;;;22.84;42.81;100766.33;105729;1254;82838;-59
2023/04/21 11:20:06;;;;;;;10.70;7.40;;;;;;;23.14;42.91;100763.86;105724;1253;73847;-61
2023/04/21 11:22:35;;;;;;;;;;;;;;;23.53;42.77;100759.34;105731;1251;69211;-59
2023/04/21 11:25:04;;;;;;;10.40;7.70;;;;;;;23.81;41.97;100760.15;105698;1254;69182;-60
2023/04/21 11:27:32;;;;;;;8.50;7.20;;;;;;;24.01;41.90;100754.31;105796;1253;73106;-61
2023/04/21 11:30:02;;;;;;;8.00;7.20;;;;;;;24.31;41.46;100747.37;105728;1253;83407;-58
2023/04/21 11:32:31;;;;;;;11.00;7.90;;;;;;;24.23;41.13;100751.96;105745;1254;72074;-65
2023/04/21 11:34:59;;;;;;;9.00;7.50;;;;;;;23.88;40.76;100750.59;105717;1251;158074;-60
2023/04/21 11:37:27;;;;;;;11.20;7.40;;;;;;;23.50;40.59;100755.86;105699;1251;69133;-58
2023/04/21 11:39:59;;;;;;;10.00;7.40;;;;;;;23.05;40.40;100756.08;105706;1253;72658;-59
2023/04/21 11:42:29;;;;;;;7.90;6.90;;;;;;;22.71;40.68;100753.35;105801;1254;83370;-57
2023/04/21 11:44:58;;;;;;;9.90;7.70;;;;;;;22.86;40.97;100746.77;105752;1251;73769;-62
2023/04/21 11:47:27;;;;;;;10.10;7.40;;;;;;;23.29;41.27;100744.39;105652;1251;69230;-59
2023/04/21 11:50:00;;;;;;;8.80;7.70;;;;;;;23.73;40.85;100739.95;105984;1253;69202;-58
2023/04/21 11:52:36;;;;;;;12.50;8.20;;;;;;;24.17;40.04;100740.36;105942;1253;74831;-59
2023/04/21 11:55:11;;;;;;;8.50;7.20;;;;;;;24.53;40.00;100732.31;106000;1250;83492;-59
2023/04/21 11:57:40;;;;;;;11.20;7.10;;;;;;;24.98;39.89;100735.86;105708;1254;71836;-56
2023/04/21 12:00:10;;;;;;;11.70;6.90;;;;;;;25.38;39.37;100745.96;105631;1251;69076;-59
2023/04/21 12:02:39;;;;;;;9.70;7.00;;;;;;;25.65;39.34;100744.80;105733;1254;69224;-57
2023/04/21 12:05:10;;;;;;;7.90;7.00;;;;;;;25.69;38.86;100741.38;105696;1251;74701;-56
2023/04/21 12:07:46;;;;;;;8.80;6.60;;;;;;;25.53;38.30;100731.32;105755;1254;83483;-58
2023/04/21 12:10:21;;;;;;;7.90;6.20;;;;;;;25.68;38.33;100727.02;105859;1251;72665;-57
2023/04/21 12:12:50;;;;;;;9.20;6.90;;;;;;;25.92;38.07;100725.07;105742;1253;69198;-57
2023/04/21 12:15:21;;;;;;;;;;;;;;;25.87;37.54;100725.57;105787;1251;69074;-57
2023/04/21 12:17:51;;;;;;;7.60;5.80;;;;;;;25.75;37.05;100727.80;105720;1251;75580;-57
2023/04/21 12:20:25;;;;;;;8.60;6.50;;;;;;;25.91;36.86;100722.70;105706;1251;82803;-56
2023/04/21 12:22:53;;;;;;;8.50;7.10;;;;;;;25.77;36.82;100718.09;105749;1251;72207;-58
2023/04/21 12:25:21;;;;;;;11.80;7.20;;;;;;;25.78;36.45;100717.42;105692;1251;69079;-58
2023/04/21 12:27:58;;;;;;;8.60;6.60;;;;;;;25.78;36.33;100715.63;105625;1254;69185;-58
2023/04/21 12:30:26;;;;;;;10.10;6.80;;;;;;;25.80;36.26;100715.91;105719;1254;74961;-63
2023/04/21 12:32:55;;;;;;;8.90;6.80;;;;;;;26.04;36.63;100713.96;105634;1254;83347;-58
2023/04/21 12:35:24;;;;;;;7.80;7.00;;;;;;;26.30;36.22;100708.32;105686;1253;73617;-58
2023/04/21 12:37:52;;;;;;;;;;;;;;;26.58;35.85;100703.56;105630;1251;69170;-59
2023/04/21 12:40:21;;;;;;;8.20;6.10;;;;;;;26.82;35.71;100699.83;105541;1251;69084;-61
2023/04/21 12:42:49;;;;;;;9.00;6.50;;;;;;;27.03;35.60;100693.19;105689;1251;74906;-58
2023/04/21 12:45:17;;;;;;;11.30;7.20;;;;;;;27.08;35.21;100689.10;105738;1251;82486;-59
2023/04/21 12:47:46;;;;;;;6.90;6.10;;;;;;;27.22;35.06;100691.20;105621;1254;74050;-60
2023/04/21 12:50:15;;;;;;;12.60;6.90;;;;;;;27.39;35.14;100686.78;105644;1250;69194;-62
2023/04/21 12:52:43;;;;;;;9.40;6.90;;;;;;;27.09;34.49;100688.80;105742;1251;69088;-59
2023/04/21 12:55:12;;;;;;;7.70;6.90;;;;;;;26.58;34.33;100688.70;105660;1251;74894;-57
2023/04/21 12:57:40;;;;;;;10.40;7.00;;;;;;;26.33;34.17;100687.45;105661;1251;83275;-57
2023/04/21 13:00:11;;;;;;;8.10;6.30;;;;;;;26.25;34.39;100687.91;105518;1251;72739;-59